sensor_id;sensor_type;location;lat;lon;timestamp;pressure;altitude;pressure_sealevel;temperature;humidity
37238;BME280;23129;49.662;8.448;2022-07-29T00:01:41;100424.81;;;21.74;44.40
37238;BME280;23129;49.662;8.448;2022-07-29T00:04:11;100435.03;;;21.69;44.49
37238;BME280;23129;49.662;8.448;2022-07-29T00:06:41;100434.59;;;21.62;44.68
37238;BME280;23129;49.662;8.448;2022-07-29T00:09:09;100433.25;;;21.57;44.74
37238;BME280;23129;49.662;8.448;2022-07-29T00:11:37;100433.69;;;21.51;44.75
37238;BME280;23129;49.662;8.448;2022-07-29T00:14:06;100438.53;;;21.46;44.96
37238;BME280;23129;49.662;8.448;2022-07-29T00:16:34;100442.59;;;21.38;45.34
37238;BME280;23129;49.662;8.448;2022-07-29T00:19:03;100444.75;;;21.33;45.32
37238;BME280;23129;49.662;8.448;2022-07-29T00:21:35;100432.78;;;21.26;45.64
37238;BME280;23129;49.662;8.448;2022-07-29T00:24:04;100435.91;;;21.20;45.45
37238;BME280;23129;49.662;8.448;2022-07-29T00:26:32;100428.34;;;21.14;45.74
37238;BME280;23129;49.662;8.448;2022-07-29T00:29:03;100426.88;;;21.10;45.86
37238;BME280;23129;49.662;8.448;2022-07-29T00:31:52;100420.16;;;21.04;45.77
37238;BME280;23129;49.662;8.448;2022-07-29T00:34:20;100424.88;;;21.01;45.97
37238;BME280;23129;49.662;8.448;2022-07-29T00:37:08;100422.44;;;20.97;46.16
37238;BME280;23129;49.662;8.448;2022-07-29T00:39:36;100410.03;;;20.96;46.03
37238;BME280;23129;49.662;8.448;2022-07-29T00:42:05;100413.69;;;20.95;45.90
37238;BME280;23129;49.662;8.448;2022-07-29T00:44:37;100420.69;;;20.96;46.05
37238;BME280;23129;49.662;8.448;2022-07-29T00:47:07;100413.69;;;20.95;46.00
37238;BME280;23129;49.662;8.448;2022-07-29T00:49:36;100419.13;;;20.94;46.04
37238;BME280;23129;49.662;8.448;2022-07-29T00:52:08;100418.47;;;20.90;46.30
37238;BME280;23129;49.662;8.448;2022-07-29T00:54:39;100411.44;;;20.89;46.38
37238;BME280;23129;49.662;8.448;2022-07-29T00:57:11;100409.84;;;20.87;46.28
37238;BME280;23129;49.662;8.448;2022-07-29T00:59:41;100409.84;;;20.87;46.29
37238;BME280;23129;49.662;8.448;2022-07-29T01:02:09;100400.03;;;20.87;46.33
37238;BME280;23129;49.662;8.448;2022-07-29T01:04:38;100401.75;;;20.88;46.34
37238;BME280;23129;49.662;8.448;2022-07-29T01:07:08;100398.13;;;20.89;46.32
37238;BME280;23129;49.662;8.448;2022-07-29T01:09:38;100389.16;;;20.90;46.20
37238;BME280;23129;49.662;8.448;2022-07-29T01:12:13;100387.44;;;20.89;46.20
37238;BME280;23129;49.662;8.448;2022-07-29T01:14:43;100386.59;;;20.89;46.20
37238;BME280;23129;49.662;8.448;2022-07-29T01:17:18;100382.13;;;20.89;46.07
37238;BME280;23129;49.662;8.448;2022-07-29T01:19:56;100387.44;;;20.89;46.29
37238;BME280;23129;49.662;8.448;2022-07-29T01:22:37;100386.69;;;20.87;46.22
37238;BME280;23129;49.662;8.448;2022-07-29T01:25:37;100378.06;;;20.84;46.20
37238;BME280;23129;49.662;8.448;2022-07-29T01:31:42;100376.81;;;20.77;46.28
37238;BME280;23129;49.662;8.448;2022-07-29T01:34:31;100379.59;;;20.75;46.40
37238;BME280;23129;49.662;8.448;2022-07-29T01:37:11;100380.66;;;20.72;46.33
37238;BME280;23129;49.662;8.448;2022-07-29T01:39:42;100381.72;;;20.70;46.37
37238;BME280;23129;49.662;8.448;2022-07-29T01:42:20;100381.94;;;20.67;46.34
37238;BME280;23129;49.662;8.448;2022-07-29T01:44:57;100365.94;;;20.67;46.29
37238;BME280;23129;49.662;8.448;2022-07-29T01:47:37;100371.50;;;20.64;46.25
37238;BME280;23129;49.662;8.448;2022-07-29T01:50:11;100361.06;;;20.61;46.46
37238;BME280;23129;49.662;8.448;2022-07-29T01:52:46;100363.09;;;20.57;46.29
37238;BME280;23129;49.662;8.448;2022-07-29T01:55:18;100358.09;;;20.52;46.40
37238;BME280;23129;49.662;8.448;2022-07-29T01:57:49;100355.50;;;20.51;46.66
37238;BME280;23129;49.662;8.448;2022-07-29T02:00:19;100348.56;;;20.48;46.37
37238;BME280;23129;49.662;8.448;2022-07-29T02:02:48;100354.25;;;20.44;46.45
37238;BME280;23129;49.662;8.448;2022-07-29T02:05:21;100357.22;;;20.39;46.57
37238;BME280;23129;49.662;8.448;2022-07-29T02:07:52;100356.50;;;20.37;46.68
37238;BME280;23129;49.662;8.448;2022-07-29T02:10:28;100348.72;;;20.34;46.82
37238;BME280;23129;49.662;8.448;2022-07-29T02:12:57;100337.59;;;20.27;46.67
37238;BME280;23129;49.662;8.448;2022-07-29T02:15:31;100340.41;;;20.26;46.59
37238;BME280;23129;49.662;8.448;2022-07-29T02:18:05;100337.19;;;20.21;46.92
37238;BME280;23129;49.662;8.448;2022-07-29T02:20:36;100346.38;;;20.17;46.91
37238;BME280;23129;49.662;8.448;2022-07-29T02:23:07;100351.03;;;20.13;46.94
37238;BME280;23129;49.662;8.448;2022-07-29T02:25:38;100350.41;;;20.10;47.05
37238;BME280;23129;49.662;8.448;2022-07-29T02:28:08;100355.09;;;20.06;47.11
37238;BME280;23129;49.662;8.448;2022-07-29T02:30:41;100354.31;;;20.04;46.89
37238;BME280;23129;49.662;8.448;2022-07-29T02:33:14;100351.03;;;20.00;46.98
37238;BME280;23129;49.662;8.448;2022-07-29T02:35:46;100351.25;;;19.97;47.32
37238;BME280;23129;49.662;8.448;2022-07-29T02:38:16;100360.41;;;19.93;47.33
37238;BME280;23129;49.662;8.448;2022-07-29T02:41:07;100365.09;;;19.90;47.05
37238;BME280;23129;49.662;8.448;2022-07-29T02:43:38;100366.88;;;19.89;47.49
37238;BME280;23129;49.662;8.448;2022-07-29T02:46:14;100367.97;;;19.87;47.42
37238;BME280;23129;49.662;8.448;2022-07-29T02:49:02;100359.31;;;19.83;47.47
37238;BME280;23129;49.662;8.448;2022-07-29T02:51:40;100364.84;;;19.80;47.49
37238;BME280;23129;49.662;8.448;2022-07-29T02:54:24;100366.78;;;19.78;47.65
37238;BME280;23129;49.662;8.448;2022-07-29T02:56:54;100367.00;;;19.75;47.56
37238;BME280;23129;49.662;8.448;2022-07-29T02:59:27;100360.16;;;19.71;47.82
37238;BME280;23129;49.662;8.448;2022-07-29T03:02:00;100362.06;;;19.69;47.63
37238;BME280;23129;49.662;8.448;2022-07-29T03:04:31;100351.81;;;19.63;47.94
37238;BME280;23129;49.662;8.448;2022-07-29T03:07:00;100348.41;;;19.60;47.85
37238;BME280;23129;49.662;8.448;2022-07-29T03:09:30;100356.59;;;19.57;48.18
37238;BME280;23129;49.662;8.448;2022-07-29T03:11:59;100356.03;;;19.52;48.26
37238;BME280;23129;49.662;8.448;2022-07-29T03:14:28;100357.06;;;19.50;48.44
37238;BME280;23129;49.662;8.448;2022-07-29T03:17:00;100347.69;;;19.44;48.34
37238;BME280;23129;49.662;8.448;2022-07-29T03:19:28;100357.69;;;19.41;48.55
37238;BME280;23129;49.662;8.448;2022-07-29T03:21:58;100355.34;;;19.36;48.61
37238;BME280;23129;49.662;8.448;2022-07-29T03:24:32;100349.34;;;19.32;48.78
37238;BME280;23129;49.662;8.448;2022-07-29T03:27:02;100351.50;;;19.27;48.81
37238;BME280;23129;49.662;8.448;2022-07-29T03:29:32;100348.91;;;19.26;48.98
37238;BME280;23129;49.662;8.448;2022-07-29T03:32:05;100346.38;;;19.24;49.08
37238;BME280;23129;49.662;8.448;2022-07-29T03:34:36;100352.75;;;19.22;49.00
37238;BME280;23129;49.662;8.448;2022-07-29T03:37:05;100358.25;;;19.19;49.41
37238;BME280;23129;49.662;8.448;2022-07-29T03:39:40;100356.75;;;19.14;49.33
37238;BME280;23129;49.662;8.448;2022-07-29T03:42:13;100362.25;;;19.11;49.57
37238;BME280;23129;49.662;8.448;2022-07-29T03:44:45;100365.97;;;19.09;49.46
37238;BME280;23129;49.662;8.448;2022-07-29T03:47:20;100350.97;;;19.08;49.46
37238;BME280;23129;49.662;8.448;2022-07-29T03:50:12;100360.75;;;19.07;49.57
37238;BME280;23129;49.662;8.448;2022-07-29T03:52:43;100356.41;;;19.06;49.86
37238;BME280;23129;49.662;8.448;2022-07-29T03:55:12;100356.47;;;19.05;49.45
37238;BME280;23129;49.662;8.448;2022-07-29T03:57:41;100360.09;;;19.04;49.79
37238;BME280;23129;49.662;8.448;2022-07-29T04:00:10;100363.72;;;19.03;49.94
37238;BME280;23129;49.662;8.448;2022-07-29T04:02:41;100363.72;;;19.03;49.84
37238;BME280;23129;49.662;8.448;2022-07-29T04:05:14;100362.84;;;19.02;49.87
37238;BME280;23129;49.662;8.448;2022-07-29T04:07:44;100366.38;;;19.03;49.96
37238;BME280;23129;49.662;8.448;2022-07-29T04:10:12;100360.31;;;19.01;50.00
37238;BME280;23129;49.662;8.448;2022-07-29T04:12:42;100370.09;;;19.00;49.89
37238;BME280;23129;49.662;8.448;2022-07-29T04:15:11;100368.34;;;18.99;49.69
37238;BME280;23129;49.662;8.448;2022-07-29T04:17:41;100370.09;;;19.00;50.06
37238;BME280;23129;49.662;8.448;2022-07-29T04:20:11;100369.25;;;19.00;50.04
37238;BME280;23129;49.662;8.448;2022-07-29T04:22:40;100369.25;;;19.00;49.80
37238;BME280;23129;49.662;8.448;2022-07-29T04:25:08;100371.00;;;18.99;50.10
37238;BME280;23129;49.662;8.448;2022-07-29T04:27:37;100368.34;;;18.99;49.77
37238;BME280;23129;49.662;8.448;2022-07-29T04:30:26;100373.69;;;18.99;49.91
37238;BME280;23129;49.662;8.448;2022-07-29T04:32:55;100370.94;;;19.01;50.11
37238;BME280;23129;49.662;8.448;2022-07-29T04:35:24;100369.13;;;19.01;50.16
37238;BME280;23129;49.662;8.448;2022-07-29T04:37:53;100379.69;;;19.03;50.06
37238;BME280;23129;49.662;8.448;2022-07-29T04:40:21;100380.53;;;19.03;49.84
37238;BME280;23129;49.662;8.448;2022-07-29T04:42:50;100375.09;;;19.05;50.15
37238;BME280;23129;49.662;8.448;2022-07-29T04:45:20;100374.16;;;19.06;50.05
37238;BME280;23129;49.662;8.448;2022-07-29T04:47:49;100369.50;;;19.09;50.13
37238;BME280;23129;49.662;8.448;2022-07-29T04:50:19;100367.56;;;19.11;50.02
37238;BME280;23129;49.662;8.448;2022-07-29T04:52:47;100376.31;;;19.13;50.18
37238;BME280;23129;49.662;8.448;2022-07-29T04:55:15;100376.09;;;19.16;50.12
37238;BME280;23129;49.662;8.448;2022-07-29T04:57:44;100373.38;;;19.18;50.12
37238;BME280;23129;49.662;8.448;2022-07-29T05:00:13;100373.16;;;19.21;49.64
37238;BME280;23129;49.662;8.448;2022-07-29T05:02:41;100372.13;;;19.24;49.97
37238;BME280;23129;49.662;8.448;2022-07-29T05:05:10;100371.78;;;19.28;49.66
37238;BME280;23129;49.662;8.448;2022-07-29T05:07:42;100374.25;;;19.31;49.99
37238;BME280;23129;49.662;8.448;2022-07-29T05:10:10;100374.81;;;19.36;49.72
37238;BME280;23129;49.662;8.448;2022-07-29T05:12:39;100388.75;;;19.40;49.82
37238;BME280;23129;49.662;8.448;2022-07-29T05:15:09;100380.59;;;19.43;49.92
37238;BME280;23129;49.662;8.448;2022-07-29T05:17:38;100377.72;;;19.46;49.40
37238;BME280;23129;49.662;8.448;2022-07-29T05:20:08;100379.22;;;19.50;49.79
37238;BME280;23129;49.662;8.448;2022-07-29T05:22:36;100381.59;;;19.55;49.53
37238;BME280;23129;49.662;8.448;2022-07-29T05:25:07;100374.25;;;19.58;49.62
37238;BME280;23129;49.662;8.448;2022-07-29T05:27:36;100378.44;;;19.63;49.65
37238;BME280;23129;49.662;8.448;2022-07-29T05:30:06;100384.31;;;19.68;49.50
37238;BME280;23129;49.662;8.448;2022-07-29T05:32:35;100389.34;;;19.72;49.52
37238;BME280;23129;49.662;8.448;2022-07-29T05:35:04;100386.34;;;19.77;49.30
37238;BME280;23129;49.662;8.448;2022-07-29T05:37:33;100390.41;;;19.82;49.44
37238;BME280;23129;49.662;8.448;2022-07-29T05:40:02;100396.38;;;19.86;49.15
37238;BME280;23129;49.662;8.448;2022-07-29T05:42:32;100395.09;;;19.92;49.18
37238;BME280;23129;49.662;8.448;2022-07-29T05:45:01;100400.00;;;19.98;49.38
37238;BME280;23129;49.662;8.448;2022-07-29T05:47:30;100395.16;;;20.04;49.04
37238;BME280;23129;49.662;8.448;2022-07-29T05:49:58;100395.66;;;20.10;49.10
37238;BME280;23129;49.662;8.448;2022-07-29T05:52:27;100398.78;;;20.16;48.81
37238;BME280;23129;49.662;8.448;2022-07-29T05:54:55;100392.91;;;20.24;48.80
37238;BME280;23129;49.662;8.448;2022-07-29T05:57:24;100399.63;;;20.29;48.74
37238;BME280;23129;49.662;8.448;2022-07-29T05:59:54;100400.91;;;20.37;48.43
37238;BME280;23129;49.662;8.448;2022-07-29T06:02:22;100396.97;;;20.42;48.46
37238;BME280;23129;49.662;8.448;2022-07-29T06:04:50;100409.84;;;20.48;48.56
37238;BME280;23129;49.662;8.448;2022-07-29T06:07:19;100407.75;;;20.54;48.40
37238;BME280;23129;49.662;8.448;2022-07-29T06:09:47;100409.03;;;20.61;48.29
37238;BME280;23129;49.662;8.448;2022-07-29T06:12:15;100408.38;;;20.70;48.32
37238;BME280;23129;49.662;8.448;2022-07-29T06:14:44;100410.41;;;20.79;47.97
37238;BME280;23129;49.662;8.448;2022-07-29T06:17:18;100412.41;;;20.88;47.89
37238;BME280;23129;49.662;8.448;2022-07-29T06:19:46;100412.47;;;21.00;47.56
37238;BME280;23129;49.662;8.448;2022-07-29T06:22:15;100410.75;;;21.11;47.49
37238;BME280;23129;49.662;8.448;2022-07-29T06:24:44;100410.72;;;21.24;47.38
37238;BME280;23129;49.662;8.448;2022-07-29T06:27:12;100410.72;;;21.37;47.06
37238;BME280;23129;49.662;8.448;2022-07-29T06:29:40;100417.69;;;21.51;47.02
37238;BME280;23129;49.662;8.448;2022-07-29T06:32:09;100417.72;;;21.62;46.81
37238;BME280;23129;49.662;8.448;2022-07-29T06:34:39;100409.78;;;21.73;46.61
37238;BME280;23129;49.662;8.448;2022-07-29T06:37:09;100415.88;;;21.86;46.42
37238;BME280;23129;49.662;8.448;2022-07-29T06:39:41;100407.91;;;21.98;46.41
37238;BME280;23129;49.662;8.448;2022-07-29T06:42:10;100412.56;;;22.07;46.28
37238;BME280;23129;49.662;8.448;2022-07-29T06:44:38;100410.41;;;22.12;46.49
37238;BME280;23129;49.662;8.448;2022-07-29T06:47:06;100402.06;;;22.17;46.52
37238;BME280;23129;49.662;8.448;2022-07-29T06:49:35;100403.28;;;22.24;46.39
37238;BME280;23129;49.662;8.448;2022-07-29T06:52:05;100417.03;;;22.30;46.41
37238;BME280;23129;49.662;8.448;2022-07-29T06:54:33;100410.25;;;22.38;46.15
37238;BME280;23129;49.662;8.448;2022-07-29T06:57:02;100416.81;;;22.45;46.25
37238;BME280;23129;49.662;8.448;2022-07-29T06:59:30;100409.75;;;22.55;46.30
37238;BME280;23129;49.662;8.448;2022-07-29T07:02:02;100417.03;;;22.64;46.36
37238;BME280;23129;49.662;8.448;2022-07-29T07:04:30;100426.16;;;22.73;46.24
37238;BME280;23129;49.662;8.448;2022-07-29T07:06:59;100427.41;;;22.80;45.86
37238;BME280;23129;49.662;8.448;2022-07-29T07:09:28;100433.13;;;22.87;46.16
37238;BME280;23129;49.662;8.448;2022-07-29T07:12:07;100434.09;;;22.97;45.87
37238;BME280;23129;49.662;8.448;2022-07-29T07:14:35;100434.59;;;23.02;45.75
37238;BME280;23129;49.662;8.448;2022-07-29T07:17:04;100446.38;;;23.11;45.86
37238;BME280;23129;49.662;8.448;2022-07-29T07:19:34;100450.50;;;23.15;46.02
37238;BME280;23129;49.662;8.448;2022-07-29T07:22:02;100448.22;;;23.21;45.88
37238;BME280;23129;49.662;8.448;2022-07-29T07:24:32;100445.72;;;23.30;45.43
37238;BME280;23129;49.662;8.448;2022-07-29T07:27:00;100451.06;;;23.41;45.71
37238;BME280;23129;49.662;8.448;2022-07-29T07:29:28;100448.22;;;23.54;45.04
37238;BME280;23129;49.662;8.448;2022-07-29T07:31:57;100447.09;;;23.67;44.94
37238;BME280;23129;49.662;8.448;2022-07-29T07:34:27;100439.00;;;23.90;44.75
37238;BME280;23129;49.662;8.448;2022-07-29T07:36:56;100441.78;;;24.21;44.56
37238;BME280;23129;49.662;8.448;2022-07-29T07:39:25;100439.53;;;24.68;43.97
37238;BME280;23129;49.662;8.448;2022-07-29T07:41:55;100441.94;;;25.01;43.34
37238;BME280;23129;49.662;8.448;2022-07-29T07:44:23;100426.53;;;25.34;42.73
37238;BME280;23129;49.662;8.448;2022-07-29T07:46:52;100438.44;;;25.61;42.66
37238;BME280;23129;49.662;8.448;2022-07-29T07:49:20;100440.69;;;25.46;42.70
37238;BME280;23129;49.662;8.448;2022-07-29T07:51:49;100430.47;;;25.30;43.39
37238;BME280;23129;49.662;8.448;2022-07-29T07:54:17;100430.75;;;25.27;43.18
37238;BME280;23129;49.662;8.448;2022-07-29T07:56:47;100439.22;;;25.32;43.32
37238;BME280;23129;49.662;8.448;2022-07-29T07:59:20;100435.56;;;25.33;43.34
37238;BME280;23129;49.662;8.448;2022-07-29T08:01:49;100437.56;;;25.31;43.68
37238;BME280;23129;49.662;8.448;2022-07-29T08:04:23;100434.16;;;25.48;43.46
37238;BME280;23129;49.662;8.448;2022-07-29T08:06:55;100434.06;;;25.79;43.02
37238;BME280;23129;49.662;8.448;2022-07-29T08:09:26;100438.72;;;25.96;42.92
37238;BME280;23129;49.662;8.448;2022-07-29T08:11:57;100441.84;;;26.02;42.81
37238;BME280;23129;49.662;8.448;2022-07-29T08:14:27;100430.25;;;26.11;43.17
37238;BME280;23129;49.662;8.448;2022-07-29T08:16:55;100436.47;;;26.21;42.87
37238;BME280;23129;49.662;8.448;2022-07-29T08:19:24;100434.16;;;26.46;42.79
37238;BME280;23129;49.662;8.448;2022-07-29T08:21:52;100429.84;;;26.72;42.31
37238;BME280;23129;49.662;8.448;2022-07-29T08:24:22;100436.25;;;26.99;42.03
37238;BME280;23129;49.662;8.448;2022-07-29T08:27:08;100436.97;;;27.28;41.82
37238;BME280;23129;49.662;8.448;2022-07-29T08:29:57;100437.03;;;27.37;41.88
37238;BME280;23129;49.662;8.448;2022-07-29T08:32:26;100441.75;;;27.35;41.94
37238;BME280;23129;49.662;8.448;2022-07-29T08:35:15;100442.97;;;27.22;42.35
37238;BME280;23129;49.662;8.448;2022-07-29T08:37:43;100446.97;;;27.36;42.24
37238;BME280;23129;49.662;8.448;2022-07-29T08:40:12;100449.78;;;27.62;41.59
37238;BME280;23129;49.662;8.448;2022-07-29T08:42:41;100448.25;;;27.77;41.58
37238;BME280;23129;49.662;8.448;2022-07-29T08:45:11;100442.44;;;28.00;41.44
37238;BME280;23129;49.662;8.448;2022-07-29T08:47:40;100450.72;;;28.25;41.32
37238;BME280;23129;49.662;8.448;2022-07-29T08:50:09;100438.03;;;28.43;40.94
37238;BME280;23129;49.662;8.448;2022-07-29T08:52:40;100444.00;;;28.81;40.47
37238;BME280;23129;49.662;8.448;2022-07-29T08:55:09;100448.84;;;29.03;40.15
37238;BME280;23129;49.662;8.448;2022-07-29T08:57:39;100449.09;;;28.92;40.31
37238;BME280;23129;49.662;8.448;2022-07-29T09:00:22;100454.88;;;28.63;40.94
37238;BME280;23129;49.662;8.448;2022-07-29T09:02:57;100452.25;;;28.45;41.30
37238;BME280;23129;49.662;8.448;2022-07-29T09:05:26;100461.06;;;28.55;41.20
37238;BME280;23129;49.662;8.448;2022-07-29T09:07:55;100454.19;;;28.61;40.91
37238;BME280;23129;49.662;8.448;2022-07-29T09:10:24;100448.25;;;28.57;41.26
37238;BME280;23129;49.662;8.448;2022-07-29T09:12:54;100446.56;;;28.56;41.07
37238;BME280;23129;49.662;8.448;2022-07-29T09:15:25;100452.25;;;28.45;41.38
37238;BME280;23129;49.662;8.448;2022-07-29T09:17:53;100445.13;;;28.44;41.47
37238;BME280;23129;49.662;8.448;2022-07-29T09:20:23;100445.00;;;28.80;40.98
37238;BME280;23129;49.662;8.448;2022-07-29T09:22:52;100442.91;;;29.42;39.98
37238;BME280;23129;49.662;8.448;2022-07-29T09:25:34;100441.00;;;30.10;39.02
37238;BME280;23129;49.662;8.448;2022-07-29T09:28:06;100440.94;;;30.59;37.95
37238;BME280;23129;49.662;8.448;2022-07-29T09:30:50;100437.25;;;30.52;38.25
37238;BME280;23129;49.662;8.448;2022-07-29T09:33:19;100442.66;;;30.52;38.50
37238;BME280;23129;49.662;8.448;2022-07-29T09:35:59;100436.22;;;30.53;38.53
37238;BME280;23129;49.662;8.448;2022-07-29T09:38:30;100431.13;;;30.58;38.52
37238;BME280;23129;49.662;8.448;2022-07-29T09:41:00;100440.09;;;30.50;38.38
37238;BME280;23129;49.662;8.448;2022-07-29T09:43:33;100426.41;;;30.52;38.21
37238;BME280;23129;49.662;8.448;2022-07-29T09:46:11;100432.31;;;30.55;38.44
37238;BME280;23129;49.662;8.448;2022-07-29T09:48:40;100437.03;;;30.69;38.05
37238;BME280;23129;49.662;8.448;2022-07-29T09:51:17;100432.28;;;31.11;37.69
37238;BME280;23129;49.662;8.448;2022-07-29T09:53:52;100430.97;;;31.69;36.82
37238;BME280;23129;49.662;8.448;2022-07-29T09:56:38;100429.47;;;32.27;35.99
37238;BME280;23129;49.662;8.448;2022-07-29T09:59:08;100426.66;;;32.73;35.45
37238;BME280;23129;49.662;8.448;2022-07-29T10:01:39;100432.53;;;33.22;34.86
37238;BME280;23129;49.662;8.448;2022-07-29T10:04:08;100427.16;;;33.64;34.34
37238;BME280;23129;49.662;8.448;2022-07-29T10:06:56;100430.25;;;33.83;34.14
37238;BME280;23129;49.662;8.448;2022-07-29T10:09:31;100429.50;;;34.11;33.78
37238;BME280;23129;49.662;8.448;2022-07-29T10:12:09;100428.47;;;34.68;33.18
37238;BME280;23129;49.662;8.448;2022-07-29T10:14:42;100424.13;;;34.80;32.91
37238;BME280;23129;49.662;8.448;2022-07-29T10:17:12;100424.41;;;34.98;32.92
37238;BME280;23129;49.662;8.448;2022-07-29T10:19:40;100426.91;;;34.93;33.06
37238;BME280;23129;49.662;8.448;2022-07-29T10:22:10;100427.34;;;34.34;33.54
37238;BME280;23129;49.662;8.448;2022-07-29T10:24:39;100432.09;;;33.76;34.34
37238;BME280;23129;49.662;8.448;2022-07-29T10:27:08;100434.38;;;33.36;35.08
37238;BME280;23129;49.662;8.448;2022-07-29T10:29:37;100425.44;;;32.91;35.44
37238;BME280;23129;49.662;8.448;2022-07-29T10:32:24;100436.25;;;32.32;36.05
37238;BME280;23129;49.662;8.448;2022-07-29T10:35:12;100427.34;;;31.54;37.31
37238;BME280;23129;49.662;8.448;2022-07-29T10:38:10;100422.09;;;31.21;37.56
37238;BME280;23129;49.662;8.448;2022-07-29T10:40:54;100416.47;;;30.91;37.83
37238;BME280;23129;49.662;8.448;2022-07-29T10:43:47;100407.38;;;30.76;38.03
37238;BME280;23129;49.662;8.448;2022-07-29T10:46:18;100419.53;;;30.88;37.60
37238;BME280;23129;49.662;8.448;2022-07-29T10:49:10;100414.22;;;31.43;36.86
37238;BME280;23129;49.662;8.448;2022-07-29T10:51:56;100406.63;;;32.07;36.04
37238;BME280;23129;49.662;8.448;2022-07-29T10:54:48;100412.59;;;32.85;35.15
37238;BME280;23129;49.662;8.448;2022-07-29T10:57:24;100407.56;;;33.33;34.40
37238;BME280;23129;49.662;8.448;2022-07-29T11:00:31;100403.31;;;33.88;33.44
37238;BME280;23129;49.662;8.448;2022-07-29T11:03:00;100406.66;;;34.12;33.38
37238;BME280;23129;49.662;8.448;2022-07-29T11:05:56;100405.78;;;34.33;33.35
37238;BME280;23129;49.662;8.448;2022-07-29T11:08:26;100403.75;;;34.76;32.73
37238;BME280;23129;49.662;8.448;2022-07-29T11:11:31;100407.28;;;35.11;32.26
37238;BME280;23129;49.662;8.448;2022-07-29T11:14:01;100397.69;;;35.22;32.37
37238;BME280;23129;49.662;8.448;2022-07-29T11:16:59;100393.31;;;35.41;32.27
37238;BME280;23129;49.662;8.448;2022-07-29T11:19:33;100389.97;;;35.52;32.00
37238;BME280;23129;49.662;8.448;2022-07-29T11:22:09;100386.47;;;35.92;31.30
37238;BME280;23129;49.662;8.448;2022-07-29T11:24:42;100381.81;;;36.25;30.73
37238;BME280;23129;49.662;8.448;2022-07-29T11:27:19;100391.88;;;36.45;30.59
37238;BME280;23129;49.662;8.448;2022-07-29T11:29:55;100390.00;;;36.45;31.08
37238;BME280;23129;49.662;8.448;2022-07-29T11:32:25;100395.72;;;36.04;30.83
37238;BME280;23129;49.662;8.448;2022-07-29T11:35:15;100390.22;;;35.64;31.64
37238;BME280;23129;49.662;8.448;2022-07-29T11:38:27;100394.78;;;35.30;31.97
37238;BME280;23129;49.662;8.448;2022-07-29T11:41:23;100387.38;;;35.17;31.84
37238;BME280;23129;49.662;8.448;2022-07-29T11:43:55;100393.25;;;35.14;32.11
37238;BME280;23129;49.662;8.448;2022-07-29T11:46:44;100392.22;;;35.22;31.75
37238;BME280;23129;49.662;8.448;2022-07-29T11:49:19;100389.50;;;35.35;31.41
37238;BME280;23129;49.662;8.448;2022-07-29T11:51:59;100383.06;;;35.63;30.98
37238;BME280;23129;49.662;8.448;2022-07-29T11:54:34;100378.47;;;36.30;30.33
37238;BME280;23129;49.662;8.448;2022-07-29T11:57:22;100381.22;;;36.95;29.76
37238;BME280;23129;49.662;8.448;2022-07-29T12:00:06;100376.94;;;37.12;29.01
37238;BME280;23129;49.662;8.448;2022-07-29T12:02:42;100377.53;;;36.69;29.55
37238;BME280;23129;49.662;8.448;2022-07-29T12:05:15;100375.75;;;36.95;29.33
37238;BME280;23129;49.662;8.448;2022-07-29T12:08:11;100369.81;;;37.11;29.35
37238;BME280;23129;49.662;8.448;2022-07-29T12:10:42;100357.09;;;37.23;29.06
37238;BME280;23129;49.662;8.448;2022-07-29T12:13:13;100356.31;;;37.48;28.70
37238;BME280;23129;49.662;8.448;2022-07-29T12:15:42;100348.97;;;37.74;28.54
37238;BME280;23129;49.662;8.448;2022-07-29T12:18:17;100348.88;;;38.12;27.98
37238;BME280;23129;49.662;8.448;2022-07-29T12:20:57;100345.50;;;38.53;27.53
37238;BME280;23129;49.662;8.448;2022-07-29T12:23:30;100343.66;;;38.66;27.33
37238;BME280;23129;49.662;8.448;2022-07-29T12:26:04;100354.34;;;38.30;27.77
37238;BME280;23129;49.662;8.448;2022-07-29T12:28:48;100347.81;;;37.88;27.75
37238;BME280;23129;49.662;8.448;2022-07-29T12:31:16;100346.09;;;37.87;27.71
37238;BME280;23129;49.662;8.448;2022-07-29T12:34:05;100346.06;;;38.19;27.44
37238;BME280;23129;49.662;8.448;2022-07-29T12:36:33;100347.44;;;38.65;27.05
37238;BME280;23129;49.662;8.448;2022-07-29T12:39:02;100349.72;;;38.68;26.81
37238;BME280;23129;49.662;8.448;2022-07-29T12:41:32;100349.09;;;38.29;26.78
37238;BME280;23129;49.662;8.448;2022-07-29T12:44:02;100353.66;;;37.91;27.56
37238;BME280;23129;49.662;8.448;2022-07-29T12:46:30;100350.25;;;37.39;27.77
37238;BME280;23129;49.662;8.448;2022-07-29T12:48:59;100346.25;;;37.10;27.74
37238;BME280;23129;49.662;8.448;2022-07-29T12:51:32;100338.56;;;37.26;27.72
37238;BME280;23129;49.662;8.448;2022-07-29T12:54:07;100344.06;;;37.26;27.80
37238;BME280;23129;49.662;8.448;2022-07-29T12:56:39;100332.16;;;37.38;27.57
37238;BME280;23129;49.662;8.448;2022-07-29T12:59:20;100336.34;;;37.73;27.18
37238;BME280;23129;49.662;8.448;2022-07-29T13:01:51;100334.16;;;38.06;26.59
37238;BME280;23129;49.662;8.448;2022-07-29T13:04:28;100331.16;;;38.51;26.20
37238;BME280;23129;49.662;8.448;2022-07-29T13:07:01;100321.56;;;38.61;26.15
37238;BME280;23129;49.662;8.448;2022-07-29T13:09:41;100315.66;;;38.75;25.78
37238;BME280;23129;49.662;8.448;2022-07-29T13:12:12;100316.38;;;38.52;26.00
37238;BME280;23129;49.662;8.448;2022-07-29T13:14:43;100324.75;;;38.21;25.71
37238;BME280;23129;49.662;8.448;2022-07-29T13:17:13;100326.91;;;37.68;26.83
37238;BME280;23129;49.662;8.448;2022-07-29T13:19:45;100326.94;;;37.37;26.52
37238;BME280;23129;49.662;8.448;2022-07-29T13:22:17;100325.31;;;37.54;26.70
37238;BME280;23129;49.662;8.448;2022-07-29T13:24:48;100317.72;;;38.06;25.69